createdAt,value
2023-05-21T00:01:03.528Z,9.18
2023-05-21T00:03:34.506Z,8.93
2023-05-21T00:06:06.816Z,9.20
2023-05-21T00:08:39.096Z,8.73
2023-05-21T00:11:07.813Z,8.88
2023-05-21T00:13:36.856Z,9.20
2023-05-21T00:16:07.266Z,9.30
2023-05-21T00:18:36.893Z,9.50
2023-05-21T00:21:10.080Z,9.77
2023-05-21T00:23:43.282Z,9.10
2023-05-21T00:26:17.145Z,9.10
2023-05-21T00:28:46.141Z,9.20
2023-05-21T00:31:19.748Z,8.98
2023-05-21T00:33:51.214Z,8.95
2023-05-21T00:36:24.541Z,9.13
2023-05-21T00:38:55.134Z,9.35
2023-05-21T00:41:26.032Z,9.23
2023-05-21T00:43:55.239Z,9.27
2023-05-21T00:46:24.432Z,9.45
2023-05-21T00:48:54.051Z,8.90
2023-05-21T00:51:23.309Z,8.75
2023-05-21T00:54:05.623Z,8.80
2023-05-21T00:56:34.295Z,9.57
2023-05-21T00:59:06.952Z,8.90
2023-05-21T01:01:37.321Z,9.55
2023-05-21T01:04:06.474Z,9.18
2023-05-21T01:06:36.603Z,9.40
2023-05-21T01:09:07.638Z,9.30
2023-05-21T01:11:44.284Z,9.38
2023-05-21T01:14:15.264Z,9.00
2023-05-21T01:16:46.510Z,9.40
2023-05-21T01:19:19.619Z,9.45
2023-05-21T01:21:51.837Z,9.10
2023-05-21T01:24:24.987Z,9.27
2023-05-21T01:26:53.486Z,9.60
2023-05-21T01:29:21.925Z,9.52
2023-05-21T01:32:00.866Z,8.93
2023-05-21T01:34:35.044Z,9.02
2023-05-21T01:37:13.695Z,9.73
2023-05-21T01:39:48.171Z,9.65
2023-05-21T01:42:21.296Z,9.68
2023-05-21T01:44:56.554Z,9.32
2023-05-21T01:47:28.579Z,9.10
2023-05-21T01:49:57.935Z,8.90
2023-05-21T01:52:29.914Z,9.20
2023-05-21T01:55:00.466Z,8.98
2023-05-21T01:57:30.031Z,9.57
2023-05-21T02:00:02.151Z,9.30
2023-05-21T02:02:31.458Z,9.02
2023-05-21T02:05:00.186Z,8.98
2023-05-21T02:07:29.387Z,8.90
2023-05-21T02:10:01.088Z,9.00
2023-05-21T02:12:29.737Z,9.02
2023-05-21T02:14:58.695Z,8.73
2023-05-21T02:17:31.268Z,8.95
2023-05-21T02:20:07.265Z,8.75
2023-05-21T02:22:39.862Z,8.90
2023-05-21T02:25:11.241Z,8.77
2023-05-21T02:27:48.192Z,8.60
2023-05-21T02:30:17.420Z,8.43
2023-05-21T02:32:49.316Z,8.48
2023-05-21T02:35:17.833Z,8.55
2023-05-21T02:37:46.346Z,8.70
2023-05-21T02:40:16.638Z,8.48
2023-05-21T02:42:50.054Z,8.93
2023-05-21T02:45:21.350Z,8.80
2023-05-21T02:47:51.406Z,8.80
2023-05-21T02:50:21.191Z,8.40
2023-05-21T02:52:51.134Z,8.32
2023-05-21T02:55:21.499Z,8.85
2023-05-21T02:57:49.809Z,8.65
2023-05-21T03:00:19.253Z,8.40
2023-05-21T03:02:49.250Z,8.85
2023-05-21T03:05:18.122Z,8.05
2023-05-21T03:07:46.697Z,8.57
2023-05-21T03:10:23.393Z,7.70
2023-05-21T03:12:52.623Z,8.40
2023-05-21T03:15:25.077Z,7.70
2023-05-21T03:17:54.556Z,7.97
2023-05-21T03:20:24.582Z,8.25
2023-05-21T03:22:55.342Z,8.07
2023-05-21T03:25:25.819Z,8.02
2023-05-21T03:27:54.236Z,7.78
2023-05-21T03:30:22.901Z,7.82
2023-05-21T03:32:51.801Z,7.68
2023-05-21T03:35:27.431Z,7.53
2023-05-21T03:37:57.887Z,7.40
2023-05-21T03:40:30.584Z,7.85
2023-05-21T03:42:59.580Z,7.70
2023-05-21T03:45:29.033Z,7.30
2023-05-21T03:48:02.378Z,7.47
2023-05-21T03:50:33.018Z,7.20
2023-05-21T03:53:04.768Z,6.90
2023-05-21T03:58:05.339Z,7.40
2023-05-21T04:00:37.846Z,7.10
2023-05-21T04:03:08.786Z,6.82
2023-05-21T04:05:37.996Z,7.00
2023-05-21T04:08:10.890Z,7.25
2023-05-21T04:10:44.158Z,6.80
2023-05-21T04:13:25.098Z,6.88
2023-05-21T04:15:54.757Z,6.30
2023-05-21T04:18:30.255Z,6.47
2023-05-21T04:21:02.087Z,6.47
2023-05-21T04:26:01.919Z,6.45
2023-05-21T04:28:32.444Z,6.57
2023-05-21T04:31:00.914Z,6.47
2023-05-21T04:33:30.719Z,6.40
2023-05-21T04:36:00.679Z,6.50
2023-05-21T04:38:38.587Z,6.20
2023-05-21T04:41:11.416Z,6.60
2023-05-21T04:43:44.072Z,6.40
2023-05-21T04:46:13.162Z,6.65
2023-05-21T04:48:42.316Z,6.85
2023-05-21T04:51:11.397Z,6.57
2023-05-21T04:53:42.930Z,6.70
2023-05-21T04:56:13.709Z,6.60
2023-05-21T04:58:44.637Z,6.85
2023-05-21T05:01:13.760Z,6.23
2023-05-21T05:03:42.202Z,6.57
2023-05-21T05:06:11.207Z,6.28
2023-05-21T05:08:39.546Z,6.07
2023-05-21T05:11:08.157Z,6.43
2023-05-21T05:13:42.056Z,6.13
2023-05-21T05:16:12.299Z,6.05
2023-05-21T05:18:41.727Z,6.15
2023-05-21T05:21:10.860Z,6.25
2023-05-21T05:23:39.398Z,6.18
2023-05-21T05:26:12.184Z,6.15
2023-05-21T05:28:46.613Z,5.95
2023-05-21T05:31:15.731Z,6.00
2023-05-21T05:33:48.430Z,6.00
2023-05-21T05:36:17.652Z,6.40
2023-05-21T05:38:48.586Z,6.20
2023-05-21T05:41:19.339Z,5.72
2023-05-21T05:43:49.021Z,6.05
2023-05-21T05:46:17.851Z,6.10
2023-05-21T05:48:47.271Z,6.25
2023-05-21T05:51:18.286Z,6.20
2023-05-21T05:53:46.962Z,6.38
2023-05-21T05:56:17.331Z,6.38
2023-05-21T05:58:45.720Z,6.15
2023-05-21T06:01:16.765Z,6.20
2023-05-21T06:03:47.502Z,6.32
2023-05-21T06:06:17.970Z,6.03
2023-05-21T06:08:46.578Z,6.00
2023-05-21T06:11:20.723Z,5.82
2023-05-21T06:13:49.321Z,6.50
2023-05-21T06:16:19.675Z,5.68
2023-05-21T06:18:49.719Z,6.10
2023-05-21T06:21:19.360Z,5.65
2023-05-21T06:23:48.212Z,5.70
2023-05-21T06:26:16.709Z,5.40
2023-05-21T06:28:47.240Z,5.97
2023-05-21T06:31:19.102Z,5.30
2023-05-21T06:33:49.819Z,5.85
2023-05-21T06:36:18.571Z,5.68
2023-05-21T06:38:49.944Z,5.70
2023-05-21T06:41:21.466Z,5.72
2023-05-21T06:43:50.300Z,5.57
2023-05-21T06:46:20.034Z,5.40
2023-05-21T06:48:48.571Z,5.47
2023-05-21T06:51:16.932Z,5.90
2023-05-21T06:53:45.921Z,5.55
2023-05-21T06:56:14.571Z,5.88
2023-05-21T06:58:43.031Z,5.50
2023-05-21T07:01:14.182Z,5.65
2023-05-21T07:03:49.237Z,5.70
2023-05-21T07:06:21.753Z,5.68
2023-05-21T07:08:51.942Z,5.60
2023-05-21T07:11:23.162Z,5.00
2023-05-21T07:13:57.289Z,5.20
2023-05-21T07:16:31.555Z,5.40
2023-05-21T07:19:02.631Z,5.60
2023-05-21T07:21:31.541Z,5.35
2023-05-21T07:24:00.293Z,5.18
2023-05-21T07:26:29.319Z,5.70
2023-05-21T07:28:57.906Z,5.32
2023-05-21T07:31:27.964Z,5.28
2023-05-21T07:33:56.353Z,5.38
2023-05-21T07:36:27.793Z,5.40
2023-05-21T07:38:58.436Z,5.32
2023-05-21T07:41:31.855Z,5.50
2023-05-21T07:44:02.019Z,5.38
2023-05-21T07:46:32.269Z,5.00
2023-05-21T07:49:00.701Z,5.50
2023-05-21T07:51:33.943Z,5.50
2023-05-21T07:54:03.280Z,5.35
2023-05-21T07:56:32.457Z,5.90
2023-05-21T07:59:01.800Z,5.10
2023-05-21T08:01:30.893Z,4.88
2023-05-21T08:04:02.092Z,5.38
2023-05-21T08:06:34.679Z,5.30
2023-05-21T08:09:03.412Z,5.15
2023-05-21T08:11:31.953Z,5.43
2023-05-21T08:14:00.566Z,5.25
2023-05-21T08:16:29.313Z,5.03
2023-05-21T08:18:58.934Z,5.10
2023-05-21T08:21:28.023Z,5.20
2023-05-21T08:24:01.285Z,4.90
2023-05-21T08:26:32.162Z,5.35
2023-05-21T08:29:04.518Z,4.90
2023-05-21T08:31:33.402Z,4.85
2023-05-21T08:34:01.814Z,4.65
2023-05-21T08:36:31.611Z,4.70
2023-05-21T08:39:06.775Z,5.55
2023-05-21T08:41:37.187Z,5.53
2023-05-21T08:44:15.111Z,4.75
2023-05-21T08:46:47.700Z,4.75
2023-05-21T08:49:18.808Z,4.70
2023-05-21T08:51:48.409Z,4.65
2023-05-21T08:54:21.444Z,4.70
2023-05-21T08:56:52.784Z,4.47
2023-05-21T08:59:24.005Z,4.70
2023-05-21T09:01:54.156Z,4.43
2023-05-21T09:04:23.189Z,4.78
2023-05-21T09:06:55.604Z,4.45
2023-05-21T09:09:34.958Z,4.68
2023-05-21T09:12:05.602Z,4.65
2023-05-21T09:14:40.310Z,4.47
2023-05-21T09:17:09.338Z,4.43
2023-05-21T09:19:43.132Z,4.47
2023-05-21T09:22:11.800Z,5.20
2023-05-21T09:24:45.203Z,4.78
2023-05-21T09:27:13.757Z,4.30
2023-05-21T09:29:43.845Z,4.65
2023-05-21T09:32:15.541Z,4.47
2023-05-21T09:34:49.931Z,4.43
2023-05-21T09:40:00.248Z,6.03
2023-05-21T09:42:31.426Z,5.20
2023-05-21T09:45:00.716Z,4.78
2023-05-21T09:47:29.125Z,4.78
2023-05-21T09:50:05.384Z,4.25
2023-05-21T09:52:42.155Z,4.43
2023-05-21T09:55:16.729Z,4.72
2023-05-21T09:57:47.626Z,4.55
2023-05-21T10:00:22.871Z,4.35
2023-05-21T10:02:55.438Z,4.32
2023-05-21T10:05:27.770Z,4.57
2023-05-21T10:08:01.919Z,4.35
2023-05-21T10:10:34.168Z,4.50
2023-05-21T10:13:06.905Z,4.30
2023-05-21T10:15:40.464Z,4.13
2023-05-21T10:18:12.142Z,4.10
2023-05-21T10:20:42.722Z,4.05
2023-05-21T10:23:13.924Z,4.00
2023-05-21T10:25:44.686Z,4.30
2023-05-21T10:28:17.744Z,4.20
2023-05-21T10:30:47.572Z,4.22
2023-05-21T10:33:18.541Z,4.38
2023-05-21T10:35:53.145Z,4.25
2023-05-21T10:38:39.869Z,4.72
2023-05-21T10:41:22.302Z,4.15
2023-05-21T10:44:07.271Z,4.55
2023-05-21T10:47:03.439Z,4.20
2023-05-21T10:49:56.027Z,3.85
2023-05-21T10:52:38.023Z,4.05
2023-05-21T10:55:19.094Z,4.20
2023-05-21T10:58:13.853Z,4.00
2023-05-21T11:00:44.745Z,4.18
2023-05-21T11:03:17.575Z,4.45
2023-05-21T11:05:55.028Z,4.32
2023-05-21T11:08:24.999Z,4.05
2023-05-21T11:10:56.186Z,4.20
2023-05-21T11:13:32.798Z,4.07
2023-05-21T11:16:16.131Z,4.30
2023-05-21T11:19:04.431Z,4.15
2023-05-21T11:21:35.796Z,4.50
2023-05-21T11:24:11.304Z,4.47
2023-05-21T11:27:08.627Z,4.38
2023-05-21T11:29:50.185Z,4.30
2023-05-21T11:32:23.246Z,4.82
2023-05-21T11:34:52.353Z,4.40
2023-05-21T11:37:37.898Z,4.43
2023-05-21T11:40:26.362Z,4.50
2023-05-21T11:42:59.323Z,4.63
2023-05-21T11:45:34.052Z,4.50
2023-05-21T11:48:02.658Z,4.43
2023-05-21T11:50:34.102Z,4.75
2023-05-21T11:53:02.494Z,4.50
2023-05-21T11:55:36.492Z,4.70
2023-05-21T11:58:06.824Z,4.80
2023-05-21T12:00:40.576Z,4.80
2023-05-21T12:03:16.595Z,4.80
2023-05-21T12:05:53.706Z,4.80
2023-05-21T12:08:26.155Z,4.85
2023-05-21T12:11:00.702Z,4.75
2023-05-21T12:13:29.754Z,4.70
2023-05-21T12:16:00.693Z,4.78
2023-05-21T12:18:29.542Z,4.50
2023-05-21T12:21:00.181Z,4.30
2023-05-21T12:23:32.791Z,4.68
2023-05-21T12:26:02.569Z,4.30
2023-05-21T12:28:32.171Z,4.50
2023-05-21T12:31:05.719Z,4.40
2023-05-21T12:33:36.989Z,4.68
2023-05-21T12:36:06.360Z,4.60
2023-05-21T12:38:35.009Z,4.57
2023-05-21T12:41:06.364Z,4.45
2023-05-21T12:43:37.466Z,4.20
2023-05-21T12:46:07.590Z,3.97
2023-05-21T12:48:36.169Z,4.05
2023-05-21T12:51:06.789Z,4.45
2023-05-21T12:53:39.335Z,4.50
2023-05-21T12:56:12.245Z,4.50
2023-05-21T12:58:43.587Z,4.70
2023-05-21T13:01:18.831Z,4.60
2023-05-21T13:03:47.855Z,4.47
2023-05-21T13:06:20.569Z,4.32
2023-05-21T13:08:50.205Z,4.55
2023-05-21T13:11:21.104Z,4.88
2023-05-21T13:13:50.150Z,4.80
2023-05-21T13:16:22.198Z,4.78
2023-05-21T13:18:53.898Z,4.85
2023-05-21T13:21:22.138Z,4.90
2023-05-21T13:23:52.855Z,4.50
2023-05-21T13:26:21.412Z,4.68
2023-05-21T13:28:51.096Z,4.47
2023-05-21T13:31:20.988Z,4.68
2023-05-21T13:33:49.422Z,4.65
2023-05-21T13:36:18.008Z,4.22
2023-05-21T13:38:49.412Z,4.90
2023-05-21T13:41:18.064Z,4.65
2023-05-21T13:43:46.556Z,4.47
2023-05-21T13:46:17.810Z,4.57
2023-05-21T13:51:37.573Z,4.47
2023-05-21T13:54:08.473Z,5.25
2023-05-21T13:56:37.141Z,4.72
2023-05-21T13:59:05.848Z,4.45
2023-05-21T14:01:34.577Z,4.57
2023-05-21T14:04:06.797Z,4.55
2023-05-21T14:06:37.820Z,4.60
2023-05-21T14:09:06.233Z,4.40
2023-05-21T14:11:35.918Z,4.68
2023-05-21T14:14:06.112Z,4.50
2023-05-21T14:16:35.081Z,4.60
2023-05-21T14:19:05.333Z,4.50
2023-05-21T14:21:34.182Z,4.60
2023-05-21T14:24:02.524Z,4.65
2023-05-21T14:26:31.027Z,4.50
2023-05-21T14:29:01.016Z,4.80
2023-05-21T14:31:29.453Z,4.85
2023-05-21T14:33:57.905Z,4.80
2023-05-21T14:36:28.197Z,4.80
2023-05-21T14:38:57.271Z,4.75
2023-05-21T14:41:26.446Z,4.90
2023-05-21T14:43:55.082Z,4.60
2023-05-21T14:46:24.500Z,4.93
2023-05-21T14:48:52.956Z,4.80
2023-05-21T14:51:21.716Z,4.60
2023-05-21T14:53:52.139Z,4.75
2023-05-21T14:56:22.171Z,4.30
2023-05-21T14:58:50.976Z,4.60
2023-05-21T15:01:19.715Z,4.55
2023-05-21T15:03:48.789Z,4.68
2023-05-21T15:06:18.734Z,4.35
2023-05-21T15:08:47.722Z,4.78
2023-05-21T15:11:17.969Z,4.50
2023-05-21T15:13:46.925Z,5.00
2023-05-21T15:16:17.194Z,4.78
2023-05-21T15:18:46.686Z,4.82
2023-05-21T15:21:16.003Z,4.50
2023-05-21T15:23:44.287Z,4.50
2023-05-21T15:26:12.939Z,4.70
2023-05-21T15:28:43.508Z,4.82
2023-05-21T15:31:12.622Z,4.50
2023-05-21T15:33:41.212Z,4.90
2023-05-21T15:36:10.380Z,4.50
2023-05-21T15:38:38.618Z,3.92
2023-05-21T15:41:07.719Z,4.40
2023-05-21T15:43:36.867Z,4.55
2023-05-21T15:46:07.213Z,4.75
2023-05-21T15:48:36.108Z,4.47
2023-05-21T15:51:04.800Z,4.47
2023-05-21T15:53:33.427Z,4.47
2023-05-21T15:56:03.278Z,4.60
2023-05-21T15:58:32.650Z,4.68
2023-05-21T16:01:01.465Z,4.53
2023-05-21T16:03:31.647Z,4.75
2023-05-21T16:06:00.366Z,4.80
2023-05-21T16:08:28.665Z,4.82
2023-05-21T16:10:58.803Z,5.10
2023-05-21T16:13:27.883Z,4.78
2023-05-21T16:15:56.138Z,4.90
2023-05-21T16:18:24.630Z,4.82
2023-05-21T16:20:56.816Z,4.70
2023-05-21T16:23:25.854Z,4.85
2023-05-21T16:25:54.476Z,4.43
2023-05-21T16:28:24.626Z,4.93
2023-05-21T16:30:53.316Z,4.82
2023-05-21T16:33:21.805Z,4.80
2023-05-21T16:35:51.292Z,5.13
2023-05-21T16:38:21.395Z,4.70
2023-05-21T16:40:51.426Z,4.85
2023-05-21T16:43:20.667Z,4.90
2023-05-21T16:45:49.669Z,5.03
2023-05-21T16:48:18.537Z,5.50
2023-05-21T16:50:47.485Z,5.05
2023-05-21T16:53:16.383Z,5.18
2023-05-21T16:55:46.089Z,5.43
2023-05-21T16:58:14.498Z,5.03
2023-05-21T17:00:43.429Z,4.88
2023-05-21T17:03:12.067Z,4.75
2023-05-21T17:05:40.836Z,4.88
2023-05-21T17:08:10.524Z,4.65
2023-05-21T17:10:39.123Z,5.45
2023-05-21T17:13:21.298Z,5.50
2023-05-21T17:15:53.131Z,5.50
2023-05-21T17:18:21.712Z,5.07
2023-05-21T17:20:50.137Z,4.95
2023-05-21T17:23:19.010Z,6.13
2023-05-21T17:25:47.374Z,7.75
2023-05-21T17:28:19.359Z,6.88
2023-05-21T17:30:49.651Z,7.55
2023-05-21T17:33:18.339Z,6.07
2023-05-21T17:35:46.881Z,6.20
2023-05-21T17:38:15.339Z,7.07
2023-05-21T17:40:43.561Z,7.30
2023-05-21T17:43:12.068Z,8.85
2023-05-21T17:45:42.224Z,10.43
2023-05-21T17:48:15.098Z,9.80
2023-05-21T17:50:46.992Z,10.00
2023-05-21T17:53:16.236Z,12.90
2023-05-21T17:55:44.490Z,14.82
2023-05-21T17:58:13.352Z,15.75
2023-05-21T18:00:43.010Z,13.35
2023-05-21T18:03:11.597Z,11.05
2023-05-21T18:05:41.594Z,9.85
2023-05-21T18:08:10.388Z,10.02
2023-05-21T18:10:38.864Z,13.30
2023-05-21T18:13:08.038Z,9.25
2023-05-21T18:15:36.550Z,7.50
2023-05-21T18:18:07.846Z,8.23
2023-05-21T18:20:37.576Z,7.68
2023-05-21T18:23:06.336Z,9.52
2023-05-21T18:25:35.656Z,22.35
2023-05-21T18:28:06.482Z,22.33
2023-05-21T18:30:35.777Z,19.45
2023-05-21T18:33:04.985Z,15.32
2023-05-21T18:35:36.293Z,12.18
2023-05-21T18:38:10.262Z,11.15
2023-05-21T18:40:39.242Z,11.73
2023-05-21T18:43:10.745Z,12.02
2023-05-21T18:45:39.944Z,11.32
2023-05-21T18:48:08.635Z,9.32
2023-05-21T18:50:39.761Z,9.93
2023-05-21T18:53:08.543Z,10.30
2023-05-21T18:55:37.293Z,9.60
2023-05-21T18:58:07.296Z,9.48
2023-05-21T19:00:38.410Z,9.93
2023-05-21T19:03:07.712Z,8.90
2023-05-21T19:05:38.291Z,9.48
2023-05-21T19:08:07.691Z,12.10
2023-05-21T19:10:39.480Z,11.70
2023-05-21T19:13:08.686Z,10.98
2023-05-21T19:15:39.065Z,10.50
2023-05-21T19:18:08.528Z,9.57
2023-05-21T19:20:39.943Z,9.00
2023-05-21T19:23:10.348Z,9.75
2023-05-21T19:25:40.101Z,9.05
2023-05-21T19:28:09.800Z,8.45
2023-05-21T19:30:38.477Z,9.25
2023-05-21T19:33:07.507Z,10.20
2023-05-21T19:35:37.953Z,10.63
2023-05-21T19:38:08.565Z,21.77
2023-05-21T19:40:37.804Z,17.65
2023-05-21T19:43:07.630Z,17.00
2023-05-21T19:45:36.478Z,18.52
2023-05-21T19:48:06.070Z,19.13
2023-05-21T19:50:39.780Z,13.85
2023-05-21T19:53:12.127Z,13.05
2023-05-21T19:55:41.492Z,12.25
2023-05-21T19:58:13.732Z,11.63
2023-05-21T20:00:47.768Z,10.73
2023-05-21T20:03:17.260Z,12.20
2023-05-21T20:05:48.915Z,13.02
2023-05-21T20:10:51.319Z,13.77
2023-05-21T20:13:21.389Z,13.50
2023-05-21T20:15:51.339Z,15.15
2023-05-21T20:18:22.510Z,14.45
2023-05-21T20:20:56.408Z,15.07
2023-05-21T20:23:26.294Z,16.80
2023-05-21T20:25:54.795Z,15.75
2023-05-21T20:28:23.337Z,16.35
2023-05-21T20:30:57.642Z,16.63
2023-05-21T20:33:26.721Z,16.33
2023-05-21T20:35:55.535Z,16.00
2023-05-21T20:38:26.694Z,15.68
2023-05-21T20:40:56.407Z,14.18
2023-05-21T20:43:25.437Z,14.82
2023-05-21T20:45:59.641Z,14.75
2023-05-21T20:48:30.645Z,12.15
2023-05-21T20:50:59.486Z,12.95
2023-05-21T20:53:30.613Z,12.52
2023-05-21T20:56:01.683Z,10.97
2023-05-21T20:58:30.131Z,10.60
2023-05-21T21:00:58.878Z,10.18
2023-05-21T21:03:30.457Z,10.82
2023-05-21T21:06:01.250Z,10.38
2023-05-21T21:08:31.069Z,10.30
2023-05-21T21:10:59.441Z,10.13
2023-05-21T21:13:27.903Z,10.02
2023-05-21T21:15:56.677Z,10.65
2023-05-21T21:18:25.008Z,10.70
2023-05-21T21:20:55.200Z,10.27
2023-05-21T21:23:25.694Z,10.27
2023-05-21T21:25:56.554Z,10.77
2023-05-21T21:28:25.274Z,10.23
2023-05-21T21:30:53.990Z,10.60
2023-05-21T21:33:25.613Z,10.95
2023-05-21T21:35:53.829Z,10.50
2023-05-21T21:38:25.849Z,10.40
2023-05-21T21:40:56.316Z,10.38
2023-05-21T21:43:25.151Z,10.48
2023-05-21T21:45:55.101Z,10.13
2023-05-21T21:48:24.052Z,10.10
2023-05-21T21:50:52.289Z,10.27
2023-05-21T21:53:21.187Z,9.70
2023-05-21T21:55:54.021Z,10.27
2023-05-21T21:58:24.135Z,9.45
2023-05-21T22:00:52.786Z,8.77
2023-05-21T22:03:22.161Z,8.35
2023-05-21T22:05:51.533Z,7.72
2023-05-21T22:08:20.162Z,7.90
2023-05-21T22:10:48.723Z,7.70
2023-05-21T22:13:17.700Z,7.90
2023-05-21T22:15:47.397Z,8.13
2023-05-21T22:18:28.251Z,7.35
2023-05-21T22:21:09.947Z,7.30
2023-05-21T22:23:39.432Z,7.53
2023-05-21T22:26:12.998Z,7.28
2023-05-21T22:28:42.235Z,7.38
2023-05-21T22:31:13.105Z,7.07
2023-05-21T22:33:43.744Z,7.93
2023-05-21T22:36:12.020Z,7.68
2023-05-21T22:38:40.373Z,6.93
2023-05-21T22:41:10.364Z,7.00
2023-05-21T22:43:41.537Z,7.70
2023-05-21T22:46:11.953Z,7.32
2023-05-21T22:48:46.083Z,7.35
2023-05-21T22:51:15.083Z,7.13
2023-05-21T22:53:43.450Z,7.03
2023-05-21T22:56:14.239Z,7.28
2023-05-21T22:58:42.872Z,6.95
2023-05-21T23:01:12.545Z,7.15
2023-05-21T23:03:41.184Z,7.15
2023-05-21T23:06:09.989Z,6.93
2023-05-21T23:08:38.575Z,7.45
2023-05-21T23:11:08.300Z,7.10
2023-05-21T23:13:37.200Z,7.00
2023-05-21T23:16:07.377Z,6.95
2023-05-21T23:18:40.283Z,6.85
2023-05-21T23:21:08.796Z,7.25
2023-05-21T23:23:37.523Z,7.22
2023-05-21T23:26:07.261Z,7.10
2023-05-21T23:28:37.283Z,7.00
2023-05-21T23:31:06.082Z,7.47
2023-05-21T23:33:34.775Z,7.72
2023-05-21T23:36:04.902Z,6.80
2023-05-21T23:38:35.604Z,7.72
2023-05-21T23:41:03.836Z,7.63
2023-05-21T23:43:34.696Z,7.55
2023-05-21T23:46:03.124Z,7.75
2023-05-21T23:48:33.389Z,8.05
2023-05-21T23:51:02.537Z,7.68
2023-05-21T23:53:32.352Z,7.60
2023-05-21T23:56:00.673Z,7.88
2023-05-21T23:58:30.760Z,8.10
